< < Back
Terminal Aerodrome Forecast


Current Version              Previous Versions:   1  2  3  4  5  6  7  8  9  

Terminal Aerodrome Forecast

856
FTUS42 KJAX 311941 AAA
TAFGNV
TAF AMD
KGNV 311941Z 3120/0118 20010KT P6SM VCSH SCT035 BKN250
     FM010000 21007KT P6SM SCT050 BKN250
     FM010800 21004KT P6SM BKN005
     FM011300 23009KT P6SM VCSH SCT030=

Latest METAR

862
SAUS70 KWBC 010300 RRO
MTRGNV
METAR KGNV 010253Z AUTO 17006KT 10SM SCT045 24/23 A2997 RMK AO2 LTG DSNT
SW SLP146 T02440233 51017


USA.gov is the U.S. government's official web portal to all federal, state and local government web resources and services.